Time;durP1;ratioP1;P1;durP2;ratioP2;P2;SDS_P1;SDS_P2;PMS_P1;PMS_P2;Temp;Humidity;BMP_temperature;BMP_pressure;BME280_temperature;BME280_humidity;BME280_pressure;Samples;Min_cycle;Max_cycle;Signal;HPM_P1;HPM_P2
2022/06/16 00:02:05;;;;;;;6.18;3.00;;;14.40;99.90;;;;;;5046777;28;20056;-62
2022/06/16 00:04:30;;;;;;;5.93;2.40;;;14.40;99.90;;;;;;5043857;28;20808;-62
2022/06/16 00:06:56;;;;;;;5.45;2.53;;;14.30;99.90;;;;;;5051464;28;20115;-62
2022/06/16 00:09:23;;;;;;;6.15;2.80;;;14.30;99.90;;;;;;5047538;28;20098;-63
2022/06/16 00:11:49;;;;;;;6.85;3.00;;;14.30;99.90;;;;;;5051685;28;20051;-62
2022/06/16 00:14:15;;;;;;;5.85;3.17;;;14.30;99.90;;;;;;5024824;28;20040;-63
2022/06/16 00:16:41;;;;;;;6.40;3.17;;;14.30;99.90;;;;;;5049387;28;20036;-62
2022/06/16 00:19:07;;;;;;;5.70;3.15;;;14.30;99.90;;;;;;5046024;28;20043;-62
2022/06/16 00:21:33;;;;;;;5.03;3.17;;;14.30;99.90;;;;;;5049690;28;21548;-63
2022/06/16 00:23:59;;;;;;;7.82;4.35;;;14.30;99.90;;;;;;5026470;28;20048;-62
2022/06/16 00:26:26;;;;;;;6.20;3.65;;;14.30;99.90;;;;;;5049381;28;20380;-62
2022/06/16 00:28:52;;;;;;;5.72;3.13;;;14.30;99.90;;;;;;5044180;28;20072;-62
2022/06/16 00:31:20;;;;;;;7.50;3.05;;;14.20;99.90;;;;;;5048757;28;20048;-62
2022/06/16 00:33:46;;;;;;;6.47;2.88;;;14.20;99.90;;;;;;5046266;28;20398;-62
2022/06/16 00:36:13;;;;;;;4.32;2.50;;;14.20;99.90;;;;;;5050319;28;20048;-62
2022/06/16 00:38:39;;;;;;;5.07;2.88;;;14.20;99.90;;;;;;5043136;28;20171;-62
2022/06/16 00:41:06;;;;;;;3.47;2.95;;;14.20;99.90;;;;;;5044467;28;20394;-62
2022/06/16 00:43:32;;;;;;;5.72;2.78;;;14.20;99.90;;;;;;5061160;28;20067;-62
2022/06/16 00:46:01;;;;;;;6.68;3.17;;;14.20;99.90;;;;;;5048789;28;20137;-62
2022/06/16 00:48:53;;;;;;;4.75;2.95;;;14.10;99.90;;;;;;5045581;28;20083;-62
2022/06/16 00:51:34;;;;;;;5.07;3.00;;;14.10;99.90;;;;;;5040861;28;20876;-62
2022/06/16 00:54:20;;;;;;;5.10;3.63;;;14.10;99.90;;;;;;5047026;28;20222;-62
2022/06/16 00:56:49;;;;;;;4.68;3.70;;;14.10;99.90;;;;;;5047455;28;20044;-62
2022/06/16 00:59:15;;;;;;;5.75;3.67;;;14.00;99.90;;;;;;5040424;28;20448;-62
2022/06/16 01:01:43;;;;;;;6.20;3.45;;;14.00;99.90;;;;;;5046637;28;20052;-62
2022/06/16 01:06:55;;;;;;;5.65;3.45;;;14.00;99.90;;;;;;5047797;28;20167;-62
2022/06/16 01:09:25;;;;;;;4.65;3.05;;;13.90;99.90;;;;;;5044140;28;20059;-62
2022/06/16 01:15:09;;;;;;;5.25;3.10;;;13.90;99.90;;;;;;5046532;28;20041;-62
2022/06/16 01:17:50;;;;;;;5.03;3.22;;;13.90;99.90;;;;;;5053207;28;20113;-62
2022/06/16 01:20:40;;;;;;;7.45;3.47;;;13.90;99.90;;;;;;5048067;28;20048;-62
2022/06/16 01:23:15;;;;;;;6.30;3.63;;;13.90;99.90;;;;;;5044903;28;20048;-62
2022/06/16 01:25:50;;;;;;;5.38;2.90;;;13.80;99.90;;;;;;5043404;28;20045;-62
2022/06/16 01:28:51;;;;;;;7.38;3.60;;;13.80;99.90;;;;;;5025403;28;20447;-62
2022/06/16 01:31:25;;;;;;;5.95;3.17;;;13.90;99.90;;;;;;5025361;28;20086;-62
2022/06/16 01:34:07;;;;;;;5.38;3.60;;;13.80;99.90;;;;;;5046228;28;20124;-62
2022/06/16 01:36:38;;;;;;;7.40;3.58;;;13.80;99.90;;;;;;5049810;28;20375;-62
2022/06/16 01:39:12;;;;;;;6.32;3.58;;;13.70;99.90;;;;;;5040249;28;20060;-62
2022/06/16 01:42:05;;;;;;;6.60;3.90;;;13.70;99.90;;;;;;5045671;28;20067;-62
2022/06/16 01:44:44;;;;;;;6.72;3.78;;;13.60;99.90;;;;;;5062823;28;20051;-62
2022/06/16 01:47:16;;;;;;;7.93;3.70;;;13.60;99.90;;;;;;5047269;28;20820;-62
2022/06/16 01:49:48;;;;;;;6.70;3.67;;;13.60;99.90;;;;;;5047757;28;20057;-62
2022/06/16 01:52:20;;;;;;;5.40;3.50;;;13.60;99.90;;;;;;5054669;28;20045;-62
2022/06/16 01:54:49;;;;;;;;;;;13.60;99.90;;;;;;5045605;28;20044;-62
2022/06/16 01:57:25;;;;;;;10.07;3.53;;;13.60;99.90;;;;;;5042836;28;20443;-62
2022/06/16 02:00:20;;;;;;;5.18;3.20;;;13.60;99.90;;;;;;5045672;28;20084;-62
2022/06/16 02:02:53;;;;;;;6.43;3.05;;;13.60;99.90;;;;;;5046276;28;20047;-62
2022/06/16 02:05:24;;;;;;;9.98;3.35;;;13.60;99.90;;;;;;5045221;28;20483;-62
2022/06/16 02:08:22;;;;;;;6.13;3.05;;;13.60;99.90;;;;;;5042072;28;20056;-62
2022/06/16 02:11:04;;;;;;;5.70;2.90;;;13.70;99.90;;;;;;5037157;28;20060;-62
2022/06/16 02:13:37;;;;;;;5.13;2.95;;;13.70;99.90;;;;;;5040834;28;20047;-62
2022/06/16 02:16:41;;;;;;;6.55;3.17;;;13.70;99.90;;;;;;5045525;28;20049;-62
2022/06/16 02:19:12;;;;;;;5.15;2.60;;;13.70;99.90;;;;;;4968226;28;20046;-63
2022/06/16 02:21:40;;;;;;;4.38;2.50;;;13.70;99.90;;;;;;4976822;28;20046;-62
2022/06/16 02:24:10;;;;;;;3.53;2.80;;;13.70;99.90;;;;;;5015027;28;20058;-62
2022/06/16 02:26:37;;;;;;;6.80;2.50;;;13.70;99.90;;;;;;5047111;28;20055;-62
2022/06/16 02:29:19;;;;;;;4.50;2.80;;;13.70;99.90;;;;;;5043747;28;20542;-62
2022/06/16 02:31:54;;;;;;;4.95;2.47;;;13.70;99.90;;;;;;5059519;28;20055;-63
2022/06/16 02:34:48;;;;;;;5.25;3.35;;;13.70;99.90;;;;;;5039144;28;20490;-62
2022/06/16 02:37:32;;;;;;;5.65;3.10;;;13.70;99.90;;;;;;5056158;28;20097;-62
2022/06/16 02:40:21;;;;;;;5.75;3.00;;;13.60;99.90;;;;;;5059103;28;20102;-62
2022/06/16 02:43:15;;;;;;;6.50;3.22;;;13.60;99.90;;;;;;5032639;28;20040;-62
2022/06/16 02:46:00;;;;;;;4.93;2.78;;;13.60;99.90;;;;;;5045244;28;20060;-62
2022/06/16 02:48:58;;;;;;;4.45;2.55;;;13.50;99.90;;;;;;5020806;28;20079;-62
2022/06/16 02:51:42;;;;;;;3.50;2.50;;;13.50;99.90;;;;;;5033508;28;20056;-62
2022/06/16 02:54:22;;;;;;;5.18;2.80;;;13.50;99.90;;;;;;5039189;28;20047;-62
2022/06/16 02:57:14;;;;;;;4.75;3.20;;;13.40;99.90;;;;;;5047335;28;20779;-62
2022/06/16 02:59:50;;;;;;;4.43;2.85;;;13.40;99.90;;;;;;5015032;28;20067;-62
2022/06/16 03:02:20;;;;;;;5.60;2.80;;;13.40;99.90;;;;;;5037328;28;20048;-62
2022/06/16 03:04:52;;;;;;;5.70;2.67;;;13.40;99.90;;;;;;5049622;28;20098;-62
2022/06/16 03:07:19;;;;;;;4.15;2.70;;;13.40;99.90;;;;;;5032190;28;20045;-62
2022/06/16 03:09:45;;;;;;;6.53;2.85;;;13.40;99.90;;;;;;5049417;28;20043;-62
2022/06/16 03:12:13;;;;;;;4.65;2.50;;;13.40;99.90;;;;;;5051146;28;20068;-62
2022/06/16 03:14:39;;;;;;;4.68;2.70;;;13.40;99.90;;;;;;5045553;28;20517;-62
2022/06/16 03:17:06;;;;;;;6.32;2.72;;;13.40;99.90;;;;;;5029577;28;20109;-63
2022/06/16 03:19:32;;;;;;;8.52;3.00;;;13.40;99.90;;;;;;5009370;28;20052;-62
2022/06/16 03:21:58;;;;;;;3.65;3.20;;;13.40;99.90;;;;;;5042645;28;20045;-63
2022/06/16 03:24:24;;;;;;;7.30;3.92;;;13.40;99.90;;;;;;5048987;28;20911;-62
2022/06/16 03:26:50;;;;;;;5.93;4.18;;;13.40;99.90;;;;;;5058540;28;20131;-63
2022/06/16 03:29:16;;;;;;;6.13;3.97;;;13.40;99.90;;;;;;5027262;28;20101;-63
2022/06/16 03:31:42;;;;;;;6.90;4.18;;;13.30;99.90;;;;;;5048833;28;20052;-63
2022/06/16 03:34:08;;;;;;;7.88;4.72;;;13.30;99.90;;;;;;5046039;28;20936;-63
2022/06/16 03:36:35;;;;;;;7.78;4.38;;;13.30;99.90;;;;;;5016587;28;20127;-63
2022/06/16 03:39:01;;;;;;;8.68;4.65;;;13.20;99.90;;;;;;5049052;28;20036;-63
2022/06/16 03:41:28;;;;;;;8.98;4.57;;;13.10;99.90;;;;;;5030005;28;20771;-62
2022/06/16 03:43:53;;;;;;;6.53;4.22;;;13.10;99.90;;;;;;5046952;28;20670;-62
2022/06/16 03:46:19;;;;;;;8.70;4.43;;;13.10;99.90;;;;;;5032302;28;20049;-62
2022/06/16 03:48:45;;;;;;;7.47;4.22;;;13.10;99.90;;;;;;5044632;28;20056;-63
2022/06/16 03:51:12;;;;;;;7.80;4.30;;;13.10;99.90;;;;;;5029715;28;20044;-62
2022/06/16 03:53:38;;;;;;;7.50;4.30;;;13.10;99.90;;;;;;5046222;28;20060;-62
2022/06/16 03:56:05;;;;;;;7.30;4.05;;;13.10;99.90;;;;;;5044442;28;20110;-62
2022/06/16 03:58:31;;;;;;;11.13;4.25;;;13.10;99.90;;;;;;5050543;28;20052;-62
2022/06/16 04:00:57;;;;;;;6.15;4.03;;;13.10;99.90;;;;;;5049181;28;20064;-62
2022/06/16 04:06:10;;;;;;;8.55;4.40;;;13.10;99.90;;;;;;5034745;28;20120;-62
2022/06/16 04:08:38;;;;;;;6.82;5.10;;;13.10;99.90;;;;;;5050303;28;20151;-62
2022/06/16 04:11:26;;;;;;;8.00;5.07;;;13.10;99.90;;;;;;5049391;28;20565;-62
2022/06/16 04:13:50;;;;;;;8.27;4.85;;;13.10;99.90;;;;;;5047021;28;20399;-62
2022/06/16 04:16:16;;;;;;;9.10;5.22;;;13.10;99.90;;;;;;5050546;28;20459;-62
2022/06/16 04:18:42;;;;;;;7.15;5.40;;;13.10;99.90;;;;;;5059222;28;20056;-62
2022/06/16 04:21:10;;;;;;;7.35;5.22;;;13.10;99.90;;;;;;5029062;28;20126;-62
2022/06/16 04:23:37;;;;;;;7.07;4.85;;;13.10;99.90;;;;;;5047511;28;20052;-62
2022/06/16 04:26:03;;;;;;;7.25;4.90;;;13.20;99.90;;;;;;5043446;28;20584;-62
2022/06/16 04:28:29;;;;;;;8.82;5.50;;;13.20;99.90;;;;;;5022646;28;20049;-62
2022/06/16 04:30:56;;;;;;;9.90;5.25;;;13.20;99.90;;;;;;5063037;28;20045;-62
2022/06/16 04:33:22;;;;;;;11.15;5.05;;;13.30;99.90;;;;;;5045258;28;20044;-62
2022/06/16 04:35:48;;;;;;;8.13;5.10;;;13.30;99.90;;;;;;5025675;28;20098;-63
2022/06/16 04:38:14;;;;;;;6.43;4.93;;;13.40;99.90;;;;;;5029331;28;20108;-62
2022/06/16 04:40:40;;;;;;;7.75;5.22;;;13.50;99.90;;;;;;5043893;28;20044;-62
2022/06/16 04:43:06;;;;;;;7.13;4.80;;;13.50;99.90;;;;;;5049889;28;20068;-62
2022/06/16 04:45:31;;;;;;;6.65;4.60;;;13.60;99.90;;;;;;5046430;28;20056;-62
2022/06/16 04:47:57;;;;;;;6.10;4.68;;;13.70;99.90;;;;;;5044326;28;20044;-62
2022/06/16 04:50:23;;;;;;;8.50;4.90;;;13.70;99.90;;;;;;5050885;28;20926;-62
2022/06/16 04:52:49;;;;;;;9.65;4.80;;;13.90;99.90;;;;;;5051065;28;20052;-62
2022/06/16 04:55:16;;;;;;;7.43;5.35;;;14.00;99.90;;;;;;5007182;28;20036;-62
2022/06/16 04:57:42;;;;;;;11.18;5.15;;;14.10;99.90;;;;;;5046878;28;20083;-62
2022/06/16 05:00:13;;;;;;;8.55;5.07;;;14.20;99.90;;;;;;5045627;28;20044;-62
2022/06/16 05:02:39;;;;;;;6.32;4.60;;;14.30;99.90;;;;;;5046736;28;20576;-62
2022/06/16 05:05:05;;;;;;;11.18;4.78;;;14.40;99.90;;;;;;5045572;28;20185;-62
2022/06/16 05:07:31;;;;;;;7.85;4.50;;;14.50;99.90;;;;;;5049775;28;20518;-62
2022/06/16 05:09:57;;;;;;;8.13;4.82;;;14.60;99.90;;;;;;5048456;28;20135;-62
2022/06/16 05:12:23;;;;;;;7.60;4.60;;;14.60;99.90;;;;;;5011868;28;20048;-62
2022/06/16 05:14:49;;;;;;;9.23;5.05;;;14.70;99.90;;;;;;5029493;28;20167;-62
2022/06/16 05:17:15;;;;;;;8.80;4.38;;;14.80;99.90;;;;;;5048544;28;20055;-62
2022/06/16 05:19:41;;;;;;;8.48;3.92;;;14.90;99.90;;;;;;5049681;28;20102;-62
2022/06/16 05:22:07;;;;;;;7.82;4.47;;;14.90;99.90;;;;;;5045076;28;20048;-62
2022/06/16 05:24:33;;;;;;;7.20;3.88;;;15.00;99.90;;;;;;5051105;28;20044;-62
2022/06/16 05:27:04;;;;;;;6.07;3.80;;;15.00;99.90;;;;;;5043133;28;20466;-62
2022/06/16 05:29:31;;;;;;;7.70;4.07;;;15.00;99.90;;;;;;5027011;28;20059;-62
2022/06/16 05:31:57;;;;;;;5.18;3.60;;;15.10;99.90;;;;;;5042961;28;20041;-62
2022/06/16 05:34:23;;;;;;;5.75;3.60;;;15.10;99.90;;;;;;5047747;28;20293;-62
2022/06/16 05:36:49;;;;;;;8.13;3.20;;;15.10;99.90;;;;;;5038363;28;20079;-62
2022/06/16 05:39:15;;;;;;;6.32;3.30;;;15.10;99.90;;;;;;5041754;28;20066;-62
2022/06/16 05:41:41;;;;;;;6.55;3.08;;;15.10;99.90;;;;;;5043551;28;20647;-62
2022/06/16 05:44:09;;;;;;;6.20;3.10;;;15.20;99.90;;;;;;5028474;28;20448;-63
2022/06/16 05:46:35;;;;;;;7.72;2.22;;;15.20;99.90;;;;;;5041365;28;20052;-63
2022/06/16 05:49:01;;;;;;;5.40;2.38;;;15.20;99.90;;;;;;5043839;28;20088;-62
2022/06/16 05:51:27;;;;;;;6.78;2.03;;;15.30;99.90;;;;;;5039595;28;20040;-62
2022/06/16 05:53:53;;;;;;;6.13;2.03;;;15.30;99.90;;;;;;5043683;28;20059;-62
2022/06/16 05:56:18;;;;;;;3.95;1.80;;;15.40;99.90;;;;;;5038462;28;20048;-62
2022/06/16 05:58:44;;;;;;;4.90;2.10;;;15.40;99.90;;;;;;5042506;28;20048;-63
2022/06/16 06:01:13;;;;;;;6.43;1.67;;;15.40;99.90;;;;;;5022286;28;20067;-62
2022/06/16 06:03:40;;;;;;;5.47;2.10;;;15.50;99.90;;;;;;5043268;28;20055;-61
2022/06/16 06:06:07;;;;;;;3.95;1.90;;;15.50;99.90;;;;;;5041523;28;20097;-62
2022/06/16 06:16:54;;;;;;;3.58;1.80;;;15.80;99.90;;;;;;5057259;28;20106;-62
2022/06/16 06:19:26;;;;;;;3.58;1.60;;;15.80;99.90;;;;;;5052320;28;20052;-62
2022/06/16 06:22:09;;;;;;;4.70;1.60;;;15.90;99.90;;;;;;5053365;28;20190;-62
2022/06/16 06:24:38;;;;;;;4.03;1.45;;;16.00;99.90;;;;;;5043757;28;22257;-62
2022/06/16 06:27:31;;;;;;;6.13;1.73;;;16.00;99.90;;;;;;5061380;28;20076;-62
2022/06/16 06:29:58;;;;;;;3.17;1.73;;;16.10;99.90;;;;;;5063325;28;20205;-62
2022/06/16 06:32:25;;;;;;;4.72;1.73;;;16.20;99.90;;;;;;5062739;28;20072;-62
2022/06/16 06:34:52;;;;;;;3.05;1.40;;;16.30;99.90;;;;;;5060881;28;20574;-62
2022/06/16 06:37:22;;;;;;;1.98;1.50;;;16.30;99.90;;;;;;5066415;28;20175;-62
2022/06/16 06:39:49;;;;;;;3.63;1.70;;;16.40;99.90;;;;;;5066983;28;20060;-62
2022/06/16 06:42:15;;;;;;;5.40;1.60;;;16.50;99.90;;;;;;5066948;28;20057;-62
2022/06/16 06:44:42;;;;;;;4.22;2.00;;;16.60;99.90;;;;;;5065702;28;20071;-62
2022/06/16 06:47:11;;;;;;;5.70;2.00;;;16.70;99.90;;;;;;5062205;28;20059;-62
2022/06/16 06:49:36;;;;;;;2.72;1.45;;;16.80;99.90;;;;;;5054473;28;20422;-62
2022/06/16 06:52:02;;;;;;;3.83;1.52;;;16.80;99.90;;;;;;5032894;28;20045;-62
2022/06/16 06:54:29;;;;;;;5.80;1.63;;;17.00;99.90;;;;;;5037586;28;20040;-62
2022/06/16 06:56:55;;;;;;;3.80;1.27;;;17.10;99.90;;;;;;5053094;28;20051;-62
2022/06/16 06:59:21;;;;;;;2.13;1.17;;;17.10;99.90;;;;;;5033385;28;20056;-62
2022/06/16 07:01:49;;;;;;;3.75;1.55;;;17.10;99.90;;;;;;5050165;28;20502;-63
2022/06/16 07:04:16;;;;;;;4.95;1.40;;;17.20;99.90;;;;;;5049079;28;20059;-62
2022/06/16 07:06:44;;;;;;;4.30;1.52;;;17.30;99.90;;;;;;5051757;28;20040;-63
2022/06/16 07:09:12;;;;;;;3.35;1.40;;;17.40;99.90;;;;;;5059899;28;20051;-62
2022/06/16 07:11:41;;;;;;;4.05;1.30;;;17.50;99.90;;;;;;5053040;28;20044;-62
2022/06/16 07:14:08;;;;;;;3.53;1.30;;;17.50;99.60;;;;;;5058474;28;20944;-62
2022/06/16 07:16:35;;;;;;;3.20;1.27;;;17.60;98.70;;;;;;5054908;28;20072;-63
2022/06/16 07:19:01;;;;;;;2.22;1.17;;;17.70;98.60;;;;;;5054286;28;20052;-62
2022/06/16 07:21:28;;;;;;;5.07;1.67;;;17.70;98.10;;;;;;5047878;28;20444;-62
2022/06/16 07:23:54;;;;;;;3.70;1.30;;;17.80;97.80;;;;;;5054608;28;20051;-63
2022/06/16 07:26:20;;;;;;;2.85;1.17;;;17.90;97.40;;;;;;5050658;28;20179;-62
2022/06/16 07:28:47;;;;;;;2.72;1.30;;;17.90;97.10;;;;;;5057866;28;20505;-62
2022/06/16 07:31:13;;;;;;;2.45;1.17;;;18.00;96.90;;;;;;5045391;28;20045;-62
2022/06/16 07:33:39;;;;;;;5.03;1.80;;;18.10;97.10;;;;;;5050673;28;20040;-62
2022/06/16 07:36:05;;;;;;;3.53;1.40;;;18.20;97.40;;;;;;5033085;28;20129;-62
2022/06/16 07:38:31;;;;;;;4.50;1.70;;;18.30;97.20;;;;;;5039760;28;20052;-62
2022/06/16 07:41:42;;;;;;;3.80;1.70;;;18.40;96.90;;;;;;5053972;28;20124;-64
2022/06/16 07:43:43;;;;;;;4.38;1.60;;;18.50;96.40;;;;;;5039329;28;20430;-61
2022/06/16 07:46:09;;;;;;;4.03;1.63;;;18.60;95.80;;;;;;5050197;28;20048;-61
2022/06/16 07:48:35;;;;;;;3.58;1.50;;;18.70;95.30;;;;;;5052210;28;20478;-61
2022/06/16 07:51:01;;;;;;;4.70;1.67;;;18.80;95.20;;;;;;5048074;28;20041;-60
2022/06/16 07:53:27;;;;;;;3.30;1.50;;;18.90;95.00;;;;;;5048776;28;25004;-61
2022/06/16 07:55:53;;;;;;;3.55;1.40;;;19.00;94.90;;;;;;5053846;28;20175;-61
2022/06/16 07:58:19;;;;;;;5.18;1.92;;;19.10;94.30;;;;;;5049221;28;20353;-60
2022/06/16 08:00:45;;;;;;;7.07;1.52;;;19.20;93.70;;;;;;5049492;28;20479;-61
2022/06/16 08:03:11;;;;;;;6.78;1.70;;;19.30;93.70;;;;;;5054081;28;20055;-61
2022/06/16 08:05:37;;;;;;;3.78;1.80;;;19.40;93.40;;;;;;5047564;28;20478;-63
2022/06/16 08:08:03;;;;;;;3.67;2.15;;;19.50;93.10;;;;;;5047545;28;20053;-61
2022/06/16 08:10:34;;;;;;;4.05;2.08;;;19.60;92.90;;;;;;5043415;28;20115;-62
2022/06/16 08:13:00;;;;;;;4.75;2.00;;;19.60;92.30;;;;;;5034885;28;20068;-63
2022/06/16 08:15:27;;;;;;;5.75;1.77;;;19.70;91.60;;;;;;5048557;28;20033;-62
2022/06/16 08:17:55;;;;;;;3.90;2.00;;;19.70;91.00;;;;;;5041937;28;20464;-61
2022/06/16 08:20:21;;;;;;;5.35;2.55;;;19.70;91.80;;;;;;5043388;28;20047;-61
2022/06/16 08:22:47;;;;;;;4.22;1.95;;;19.80;91.60;;;;;;5048502;28;20037;-63
2022/06/16 08:25:15;;;;;;;3.85;2.08;;;19.90;90.20;;;;;;5048073;28;22689;-62
2022/06/16 08:27:44;;;;;;;5.00;1.65;;;19.90;89.90;;;;;;5039520;28;20426;-62
2022/06/16 08:30:13;;;;;;;3.85;1.75;;;20.00;90.60;;;;;;5044367;28;20048;-62
2022/06/16 08:32:39;;;;;;;7.07;2.50;;;20.10;90.90;;;;;;5047251;28;20048;-61
2022/06/16 08:35:06;;;;;;;4.80;1.63;;;20.20;90.20;;;;;;5044309;28;20119;-62
2022/06/16 08:37:31;;;;;;;4.47;1.77;;;20.30;87.60;;;;;;5044993;28;20048;-62
2022/06/16 08:39:57;;;;;;;5.03;1.60;;;20.40;86.40;;;;;;5051172;28;20048;-61
2022/06/16 08:42:35;;;;;;;4.03;1.80;;;20.50;86.20;;;;;;5044454;28;20134;-61
2022/06/16 08:45:15;;;;;;;4.93;1.63;;;20.60;85.50;;;;;;5045896;28;20044;-62
2022/06/16 08:47:49;;;;;;;3.75;1.80;;;20.70;86.60;;;;;;5041991;28;20052;-61
2022/06/16 08:50:37;;;;;;;2.92;1.70;;;20.80;85.20;;;;;;5045537;28;20121;-61
2022/06/16 08:53:25;;;;;;;5.05;1.60;;;20.80;81.70;;;;;;5045890;28;20606;-62
2022/06/16 08:56:01;;;;;;;3.25;1.30;;;20.80;83.60;;;;;;5053685;28;20049;-62
2022/06/16 08:58:32;;;;;;;2.28;1.63;;;20.70;83.20;;;;;;5057121;28;20809;-62
2022/06/16 09:01:09;;;;;;;3.33;1.67;;;20.80;82.50;;;;;;5048209;28;20048;-62
2022/06/16 09:03:46;;;;;;;2.17;1.63;;;20.80;82.00;;;;;;5050060;28;22702;-62
2022/06/16 09:06:29;;;;;;;3.55;1.92;;;20.70;82.10;;;;;;5053658;28;20091;-62
2022/06/16 09:09:01;;;;;;;;;;;20.70;81.80;;;;;;5058050;28;20037;-61
2022/06/16 09:11:46;;;;;;;4.25;1.83;;;20.60;82.80;;;;;;5047054;28;20420;-62
2022/06/16 09:17:59;;;;;;;7.93;2.53;;;20.70;80.50;;;;;;5055248;28;21679;-60
2022/06/16 09:20:55;;;;;;;4.38;1.92;;;20.90;81.00;;;;;;5055988;28;20049;-62
2022/06/16 09:23:42;;;;;;;7.00;2.22;;;20.90;79.10;;;;;;5050732;28;20069;-61
2022/06/16 09:26:20;;;;;;;3.30;2.13;;;21.00;80.90;;;;;;5048515;28;21304;-62
2022/06/16 09:28:53;;;;;;;4.22;2.22;;;21.10;81.60;;;;;;5051015;28;20091;-63
2022/06/16 09:31:50;;;;;;;5.60;2.20;;;21.30;81.50;;;;;;5051184;28;20526;-62
2022/06/16 09:34:41;;;;;;;5.97;2.08;;;21.40;80.60;;;;;;5050373;28;20056;-62
2022/06/16 09:37:18;;;;;;;3.72;2.35;;;21.70;79.30;;;;;;5056882;28;20439;-61
2022/06/16 09:39:54;;;;;;;4.05;2.33;;;21.80;77.50;;;;;;5054002;28;20063;-62
2022/06/16 09:42:33;;;;;;;4.07;2.50;;;21.90;76.80;;;;;;5055584;28;20509;-61
2022/06/16 09:45:08;;;;;;;4.65;2.30;;;22.00;74.60;;;;;;5045478;28;20052;-61
2022/06/16 09:47:53;;;;;;;3.17;2.20;;;22.10;73.40;;;;;;5049281;28;20471;-61
2022/06/16 09:50:40;;;;;;;5.28;2.50;;;22.20;75.30;;;;;;5042915;28;20080;-62
2022/06/16 09:53:27;;;;;;;5.20;2.50;;;22.40;78.30;;;;;;5055948;28;20068;-60
2022/06/16 09:56:05;;;;;;;4.47;2.42;;;22.60;75.90;;;;;;5053465;28;20059;-61
2022/06/16 09:58:34;;;;;;;6.95;2.88;;;22.80;72.60;;;;;;5048568;28;20045;-61
2022/06/16 10:01:05;;;;;;;4.72;2.70;;;22.80;71.80;;;;;;5050966;28;20044;-62
2022/06/16 10:04:00;;;;;;;4.37;2.10;;;22.80;70.50;;;;;;5047308;28;20135;-60
2022/06/16 10:06:28;;;;;;;5.20;2.20;;;22.70;70.50;;;;;;5043702;28;20321;-61
2022/06/16 10:09:22;;;;;;;6.07;2.55;;;22.80;71.70;;;;;;5050802;28;20139;-62
2022/06/16 10:11:57;;;;;;;6.70;2.70;;;22.90;70.10;;;;;;5050535;28;20118;-61
2022/06/16 10:14:38;;;;;;;4.55;2.50;;;23.10;71.00;;;;;;5044746;28;20121;-61
2022/06/16 10:17:15;;;;;;;4.93;2.20;;;23.40;69.00;;;;;;5052237;28;20047;-61
2022/06/16 10:19:44;;;;;;;4.18;2.40;;;23.40;68.30;;;;;;5054903;28;20132;-61
2022/06/16 10:22:19;;;;;;;6.03;2.63;;;23.50;67.60;;;;;;5053963;28;20123;-62
2022/06/16 10:25:03;;;;;;;5.70;2.30;;;23.60;66.70;;;;;;5040889;28;20048;-62
2022/06/16 10:27:42;;;;;;;3.40;2.38;;;23.70;65.00;;;;;;5054010;28;20067;-61
2022/06/16 10:30:36;;;;;;;3.55;2.30;;;23.80;64.90;;;;;;5048883;28;20045;-61
2022/06/16 10:33:18;;;;;;;5.90;2.70;;;23.90;66.70;;;;;;5047423;28;20056;-61
2022/06/16 10:35:55;;;;;;;5.57;2.10;;;24.10;67.00;;;;;;5057324;28;20102;-62
2022/06/16 10:38:31;;;;;;;6.40;2.78;;;24.40;65.30;;;;;;5053193;28;20040;-62
2022/06/16 10:40:58;;;;;;;4.55;1.90;;;24.40;64.10;;;;;;5060056;28;20559;-63
2022/06/16 10:43:25;;;;;;;3.35;2.10;;;24.50;64.70;;;;;;5056151;28;20040;-63
2022/06/16 10:46:11;;;;;;;5.68;2.80;;;24.60;63.70;;;;;;5055033;28;20044;-62
2022/06/16 10:48:39;;;;;;;6.95;2.80;;;24.70;63.10;;;;;;5046285;28;20861;-62
2022/06/16 10:51:10;;;;;;;5.75;3.03;;;24.70;62.40;;;;;;5061138;28;20460;-62
2022/06/16 10:53:47;;;;;;;3.95;2.92;;;24.80;62.10;;;;;;5057787;28;21140;-62
2022/06/16 10:56:22;;;;;;;6.07;2.60;;;24.80;62.50;;;;;;5045391;28;20040;-62
2022/06/16 10:58:51;;;;;;;2.80;2.30;;;24.90;64.30;;;;;;5046791;28;20133;-62
2022/06/16 11:01:20;;;;;;;3.92;2.22;;;25.00;62.90;;;;;;5050239;28;20138;-62
2022/06/16 11:03:49;;;;;;;6.13;2.00;;;25.10;61.70;;;;;;5051453;28;21218;-62
2022/06/16 11:06:19;;;;;;;8.73;2.42;;;25.10;60.90;;;;;;5049879;28;20131;-65
2022/06/16 11:08:52;;;;;;;10.27;2.38;;;25.20;61.10;;;;;;5072150;28;20051;-62
2022/06/16 11:11:39;;;;;;;5.82;2.17;;;25.30;59.80;;;;;;5055380;28;20052;-61
2022/06/16 11:14:16;;;;;;;3.63;2.35;;;25.40;59.80;;;;;;5051678;28;20048;-61
2022/06/16 11:16:49;;;;;;;7.30;2.63;;;25.50;60.00;;;;;;5051407;28;20086;-62
2022/06/16 11:19:27;;;;;;;8.10;2.38;;;25.60;58.50;;;;;;5053402;28;20043;-62
2022/06/16 11:21:53;;;;;;;4.57;2.25;;;25.60;58.60;;;;;;5058226;28;20156;-63
2022/06/16 11:24:30;;;;;;;4.80;2.22;;;25.70;58.00;;;;;;5060584;28;20049;-61
2022/06/16 11:27:22;;;;;;;4.18;2.55;;;25.70;58.20;;;;;;5058203;28;20048;-62
2022/06/16 11:29:48;;;;;;;2.72;2.40;;;25.80;57.80;;;;;;5051090;28;20059;-62
2022/06/16 11:32:19;;;;;;;5.68;2.63;;;25.90;58.20;;;;;;5054039;28;20048;-61
2022/06/16 11:34:46;;;;;;;4.32;2.35;;;25.90;58.70;;;;;;5033874;28;20242;-61
2022/06/16 11:37:48;;;;;;;5.10;2.15;;;25.90;58.20;;;;;;5050840;28;20231;-61
2022/06/16 11:40:35;;;;;;;3.63;2.17;;;26.00;56.70;;;;;;5053642;28;20912;-61
2022/06/16 11:43:35;;;;;;;7.63;2.35;;;26.00;54.10;;;;;;5048708;28;20044;-61
2022/06/16 11:46:24;;;;;;;5.65;2.15;;;26.10;56.80;;;;;;5052484;28;20098;-62
2022/06/16 11:49:09;;;;;;;3.97;2.10;;;26.10;54.80;;;;;;5049062;28;20060;-61
2022/06/16 11:52:01;;;;;;;6.35;2.38;;;26.20;55.20;;;;;;5052590;28;21065;-61
2022/06/16 11:54:36;;;;;;;4.50;2.97;;;26.20;55.80;;;;;;5042644;28;20041;-61
2022/06/16 11:57:32;;;;;;;6.72;3.13;;;26.20;57.60;;;;;;5043884;28;20050;-62
2022/06/16 12:00:04;;;;;;;3.50;2.20;;;26.20;56.20;;;;;;5052030;28;20044;-62
2022/06/16 12:03:04;;;;;;;3.83;2.53;;;26.30;55.80;;;;;;5046583;28;20067;-62
2022/06/16 12:05:47;;;;;;;4.55;2.22;;;26.30;55.20;;;;;;5045077;28;20080;-61
2022/06/16 12:08:28;;;;;;;4.70;2.35;;;26.40;56.10;;;;;;5051262;28;21235;-63
2022/06/16 12:11:03;;;;;;;9.88;2.15;;;26.50;55.40;;;;;;5050084;28;20052;-62
2022/06/16 12:13:50;;;;;;;5.07;2.22;;;26.60;55.20;;;;;;5037092;28;20049;-62
2022/06/16 12:16:58;;;;;;;5.15;2.10;;;26.70;55.30;;;;;;5040007;28;20215;-63
2022/06/16 12:19:37;;;;;;;3.35;2.10;;;26.80;55.70;;;;;;5031295;28;20048;-62
2022/06/16 12:22:30;;;;;;;3.92;2.25;;;27.00;55.40;;;;;;5038976;28;20075;-64
2022/06/16 12:24:56;;;;;;;3.75;2.17;;;27.10;54.50;;;;;;5041116;28;20036;-63
2022/06/16 12:27:44;;;;;;;5.18;2.50;;;27.40;55.20;;;;;;5045936;28;20036;-62
2022/06/16 12:30:18;;;;;;;4.72;2.20;;;27.50;54.20;;;;;;5032285;28;20246;-63
2022/06/16 12:33:16;;;;;;;3.97;2.22;;;27.50;56.30;;;;;;5040923;28;20082;-63
2022/06/16 12:36:04;;;;;;;9.77;2.92;;;27.70;55.50;;;;;;5038908;28;20131;-63
2022/06/16 12:38:36;;;;;;;3.92;2.40;;;27.90;53.20;;;;;;5041285;28;20412;-63
2022/06/16 12:41:05;;;;;;;;;;;27.80;51.90;;;;;;5047274;28;20044;-62
2022/06/16 12:43:43;;;;;;;5.47;2.05;;;27.70;52.70;;;;;;5023271;28;19924;-62
2022/06/16 12:46:38;;;;;;;3.47;2.00;;;27.70;53.90;;;;;;5041109;28;20036;-62
2022/06/16 12:49:08;;;;;;;4.32;2.53;;;27.80;53.20;;;;;;5028736;28;20556;-62
2022/06/16 12:51:44;;;;;;;4.25;2.20;;;27.90;52.80;;;;;;5046892;28;20812;-63
2022/06/16 12:54:21;;;;;;;4.68;2.30;;;28.10;53.70;;;;;;5045091;28;20047;-62
2022/06/16 12:56:55;;;;;;;4.45;2.50;;;28.30;52.30;;;;;;5037847;28;20048;-62
2022/06/16 12:59:42;;;;;;;6.20;2.50;;;28.30;52.00;;;;;;5039774;28;20443;-63
2022/06/16 13:02:13;;;;;;;5.63;2.60;;;28.30;52.00;;;;;;5042320;28;20067;-63
2022/06/16 13:04:40;;;;;;;2.63;2.40;;;28.30;50.90;;;;;;5040948;28;20049;-63
2022/06/16 13:07:16;;;;;;;4.55;2.53;;;28.30;51.40;;;;;;5043425;28;20051;-63
2022/06/16 13:09:42;;;;;;;4.05;2.22;;;28.40;51.90;;;;;;5049761;28;20060;-63
2022/06/16 13:12:22;;;;;;;3.83;2.20;;;28.50;50.90;;;;;;5058390;28;20080;-63
2022/06/16 13:15:00;;;;;;;5.13;2.10;;;28.50;51.20;;;;;;5053096;28;20034;-63
2022/06/16 13:17:30;;;;;;;4.25;2.40;;;28.40;51.40;;;;;;5056619;28;20545;-63
2022/06/16 13:20:01;;;;;;;3.88;2.10;;;28.40;51.10;;;;;;5058559;28;20047;-63
2022/06/16 13:22:42;;;;;;;3.40;2.10;;;28.50;51.90;;;;;;5054036;28;20182;-63
2022/06/16 13:25:46;;;;;;;5.07;2.45;;;28.60;50.30;;;;;;5055837;28;20095;-63
2022/06/16 13:28:38;;;;;;;4.43;2.15;;;28.40;50.70;;;;;;5060095;28;25151;-64
2022/06/16 13:31:11;;;;;;;3.90;2.15;;;28.40;51.40;;;;;;5056976;28;20147;-63
2022/06/16 13:33:53;;;;;;;6.78;2.10;;;28.30;50.50;;;;;;5036384;28;20123;-65
2022/06/16 13:36:30;;;;;;;4.97;2.20;;;28.40;52.00;;;;;;5043807;28;20051;-64
2022/06/16 13:38:57;;;;;;;4.15;2.20;;;28.50;50.30;;;;;;5053535;28;20059;-64
2022/06/16 13:41:42;;;;;;;6.60;2.17;;;28.50;49.80;;;;;;5053107;28;20519;-64